createdAt,value
2022-07-29T00:02:27.241Z,101998.44
2022-07-29T00:04:54.361Z,102010.53
2022-07-29T00:07:21.249Z,102011.03
2022-07-29T00:09:51.389Z,102015.22
2022-07-29T00:12:26.550Z,102008.75
2022-07-29T00:14:57.223Z,102001.88
2022-07-29T00:17:27.021Z,102005.56
2022-07-29T00:19:54.179Z,102003.16
2022-07-29T00:22:21.556Z,101993.38
2022-07-29T00:24:50.200Z,102000.66
2022-07-29T00:27:18.070Z,101995.25
2022-07-29T00:29:44.744Z,102007.56
2022-07-29T00:32:11.505Z,102000.69
2022-07-29T00:34:56.673Z,101968.03
2022-07-29T00:37:23.334Z,101957.63
2022-07-29T00:39:50.192Z,101958.84
2022-07-29T00:42:17.555Z,101953.19
2022-07-29T00:44:44.765Z,101956.06
2022-07-29T00:47:13.081Z,101960.53
2022-07-29T00:49:42.786Z,101953.66
2022-07-29T00:52:11.679Z,101951.97
2022-07-29T00:54:43.979Z,101953.97
2022-07-29T00:57:12.124Z,101958.75
2022-07-29T00:59:38.771Z,101948.06
2022-07-29T01:02:05.656Z,101950.09
2022-07-29T01:04:32.986Z,101953.09
2022-07-29T01:07:01.969Z,101953.09
2022-07-29T01:09:42.915Z,101947.75
2022-07-29T01:12:18.051Z,101945.59
2022-07-29T01:14:45.896Z,101938.81
2022-07-29T01:17:23.875Z,101936.63
2022-07-29T01:20:31.660Z,101938.88
2022-07-29T01:23:04.512Z,101944.25
2022-07-29T01:26:01.574Z,101942.59
2022-07-29T01:29:00.700Z,101949.03
2022-07-29T01:32:27.328Z,101942.97
2022-07-29T01:35:07.308Z,101939.78
2022-07-29T01:37:43.575Z,101943.81
2022-07-29T01:40:28.390Z,101936.75
2022-07-29T01:42:58.285Z,101940.25
2022-07-29T01:45:40.036Z,101938.53
2022-07-29T01:48:36.704Z,101938.78
2022-07-29T01:51:09.153Z,101933.88
2022-07-29T01:53:43.673Z,101937.03
2022-07-29T01:56:12.759Z,101935.56
2022-07-29T01:58:42.680Z,101931.91
2022-07-29T02:01:12.085Z,101929.56
2022-07-29T02:03:40.241Z,101930.53
2022-07-29T02:06:09.988Z,101926.53
2022-07-29T02:08:39.644Z,101923.16
2022-07-29T02:11:08.446Z,101910.16
2022-07-29T02:13:37.924Z,101908.66
2022-07-29T02:16:08.508Z,101904.25
2022-07-29T02:18:38.686Z,101906.00
2022-07-29T02:21:05.826Z,101906.75
2022-07-29T02:23:50.362Z,101902.50
2022-07-29T02:26:20.110Z,101890.69
2022-07-29T02:28:47.707Z,101890.00
2022-07-29T02:31:16.372Z,101891.19
2022-07-29T02:33:44.825Z,101893.91
2022-07-29T02:36:12.432Z,101890.63
2022-07-29T02:38:56.499Z,101890.28
2022-07-29T02:41:36.391Z,101895.22
2022-07-29T02:44:09.806Z,101890.50
2022-07-29T02:46:38.861Z,101880.97
2022-07-29T02:49:14.345Z,101874.75
2022-07-29T02:51:47.843Z,101880.34
2022-07-29T02:54:46.941Z,101870.44
2022-07-29T02:57:23.812Z,101873.38
2022-07-29T02:59:53.800Z,101875.59
2022-07-29T03:02:22.533Z,101875.81
2022-07-29T03:04:51.124Z,101876.03
2022-07-29T03:07:21.272Z,101872.53
2022-07-29T03:09:49.138Z,101872.31
2022-07-29T03:12:17.026Z,101872.25
2022-07-29T03:14:44.905Z,101870.56
2022-07-29T03:17:12.452Z,101868.69
2022-07-29T03:19:39.941Z,101876.25
2022-07-29T03:22:07.119Z,101860.06
2022-07-29T03:24:37.042Z,101859.03
2022-07-29T03:27:05.078Z,101857.94
2022-07-29T03:29:33.462Z,101850.19
2022-07-29T03:32:07.533Z,101843.00
2022-07-29T03:34:35.748Z,101846.66
2022-07-29T03:37:02.507Z,101843.97
2022-07-29T03:39:34.087Z,101836.56
2022-07-29T03:42:02.083Z,101829.38
2022-07-29T03:44:30.203Z,101825.50
2022-07-29T03:46:58.970Z,101830.81
2022-07-29T03:49:27.706Z,101819.41
2022-07-29T03:51:55.420Z,101813.69
2022-07-29T03:54:22.405Z,101825.25
2022-07-29T03:56:53.207Z,101818.19
2022-07-29T03:59:22.336Z,101814.88
2022-07-29T04:01:49.661Z,101812.69
2022-07-29T04:04:17.157Z,101813.50
2022-07-29T04:06:45.968Z,101804.22
2022-07-29T04:09:15.661Z,101803.34
2022-07-29T04:12:01.756Z,101804.84
2022-07-29T04:14:30.364Z,101801.09
2022-07-29T04:16:57.076Z,101800.56
2022-07-29T04:19:23.749Z,101793.69
2022-07-29T04:21:50.815Z,101795.00
2022-07-29T04:24:18.353Z,101797.72
2022-07-29T04:26:47.021Z,101794.34
2022-07-29T04:29:15.506Z,101788.91
2022-07-29T04:31:43.153Z,101784.69
2022-07-29T04:34:10.713Z,101794.56
2022-07-29T04:36:37.427Z,101784.66
2022-07-29T04:39:05.128Z,101775.66
2022-07-29T04:41:33.010Z,101779.75
2022-07-29T04:44:02.048Z,101786.97
2022-07-29T04:46:29.128Z,101787.47
2022-07-29T04:48:56.109Z,101788.06
2022-07-29T04:51:22.977Z,101790.78
2022-07-29T04:53:49.673Z,101791.06
2022-07-29T04:56:16.392Z,101794.47
2022-07-29T04:58:43.059Z,101787.78
2022-07-29T05:01:10.245Z,101788.63
2022-07-29T05:03:37.016Z,101787.97
2022-07-29T05:06:03.852Z,101785.88
2022-07-29T05:08:30.828Z,101780.34
2022-07-29T05:10:57.658Z,101778.09
2022-07-29T05:13:25.197Z,101772.03
2022-07-29T05:15:51.910Z,101771.00
2022-07-29T05:18:18.633Z,101759.94
2022-07-29T05:20:45.339Z,101759.00
2022-07-29T05:23:13.884Z,101753.44
2022-07-29T05:25:44.213Z,101757.63
2022-07-29T05:28:12.434Z,101756.25
2022-07-29T05:30:39.272Z,101754.69
2022-07-29T05:33:06.022Z,101760.41
2022-07-29T05:35:32.815Z,101762.19
2022-07-29T05:37:59.483Z,101771.06
2022-07-29T05:40:26.484Z,101785.63
2022-07-29T05:42:53.394Z,101802.53
2022-07-29T05:45:20.152Z,101799.97
2022-07-29T05:47:46.965Z,101819.84
2022-07-29T05:50:14.021Z,101827.56
2022-07-29T05:52:40.824Z,101822.31
2022-07-29T05:55:08.018Z,101823.91
2022-07-29T05:57:34.817Z,101843.16
2022-07-29T06:00:01.807Z,101841.00
2022-07-29T06:02:28.548Z,101862.22
2022-07-29T06:04:56.377Z,101866.19
2022-07-29T06:07:23.359Z,101885.28
2022-07-29T06:09:50.149Z,101905.38
2022-07-29T06:12:16.883Z,101931.25
2022-07-29T06:14:43.618Z,101938.34
2022-07-29T06:17:12.551Z,101949.69
2022-07-29T06:19:39.427Z,101963.06
2022-07-29T06:22:06.327Z,101975.28
2022-07-29T06:24:33.158Z,101978.38
2022-07-29T06:26:59.837Z,101977.75
2022-07-29T06:29:27.068Z,101998.09
2022-07-29T06:31:53.836Z,101992.91
2022-07-29T06:34:20.785Z,101993.22
2022-07-29T06:36:47.744Z,101985.25
2022-07-29T06:39:16.096Z,102000.00
2022-07-29T06:41:43.469Z,101987.91
2022-07-29T06:44:12.666Z,101975.78
2022-07-29T06:46:39.728Z,101935.31
2022-07-29T06:49:06.676Z,101891.09
2022-07-29T06:51:33.929Z,101885.50
2022-07-29T06:54:02.747Z,101832.31
2022-07-29T06:56:39.396Z,101854.69
2022-07-29T06:59:09.092Z,101910.59
2022-07-29T07:01:41.350Z,101892.19
2022-07-29T07:04:09.843Z,101858.63
2022-07-29T07:06:37.121Z,101909.56
2022-07-29T07:09:04.803Z,101896.63
2022-07-29T07:11:31.938Z,101896.16
2022-07-29T07:14:02.944Z,101931.16
2022-07-29T07:16:31.906Z,101943.31
2022-07-29T07:18:58.954Z,101937.38
2022-07-29T07:21:25.645Z,101937.59
2022-07-29T07:23:52.351Z,101930.81
2022-07-29T07:26:19.099Z,101921.31
2022-07-29T07:28:45.975Z,101943.88
2022-07-29T07:31:13.071Z,101960.72
2022-07-29T07:33:39.899Z,101980.75
2022-07-29T07:36:06.735Z,101993.72
2022-07-29T07:38:33.543Z,101998.94
2022-07-29T07:41:00.478Z,101997.19
2022-07-29T07:43:27.328Z,101998.06
2022-07-29T07:45:54.111Z,101994.28
2022-07-29T07:48:21.531Z,102005.84
2022-07-29T07:50:50.319Z,102002.78
2022-07-29T07:53:17.305Z,102006.31
2022-07-29T07:56:09.335Z,102002.97
2022-07-29T07:58:31.161Z,102000.56
2022-07-29T08:00:57.988Z,101978.28
2022-07-29T08:03:24.903Z,101951.03
2022-07-29T08:05:52.869Z,101951.25
2022-07-29T08:08:19.770Z,101925.63
2022-07-29T08:11:02.215Z,101934.72
2022-07-29T08:13:32.914Z,101932.00
2022-07-29T08:16:12.362Z,101909.19
2022-07-29T08:18:41.178Z,101914.00
2022-07-29T08:21:08.329Z,101919.09
2022-07-29T08:23:50.387Z,101934.22
2022-07-29T08:26:21.883Z,101923.06
2022-07-29T08:28:51.281Z,101943.56
2022-07-29T08:31:18.912Z,101931.50
2022-07-29T08:33:45.880Z,101934.25
2022-07-29T08:36:14.056Z,101950.13
2022-07-29T08:38:40.938Z,101972.34
2022-07-29T08:41:07.669Z,101951.88
2022-07-29T08:43:38.253Z,101949.81
2022-07-29T08:46:05.251Z,101963.03
2022-07-29T08:48:32.272Z,101960.28
2022-07-29T08:50:59.778Z,101967.31
2022-07-29T08:53:28.207Z,101967.59
2022-07-29T08:55:56.406Z,101958.19
2022-07-29T08:58:25.239Z,101949.25
2022-07-29T09:00:55.602Z,101928.81
2022-07-29T09:03:25.965Z,101898.22
2022-07-29T09:05:52.985Z,101877.03
2022-07-29T09:08:21.202Z,101884.03
2022-07-29T09:10:48.893Z,101868.75
2022-07-29T09:13:15.821Z,101852.59
2022-07-29T09:15:42.599Z,101849.69
2022-07-29T09:18:20.428Z,101857.66
2022-07-29T09:21:31.566Z,101869.69
2022-07-29T09:24:01.210Z,101891.78
2022-07-29T09:26:36.729Z,101903.28
2022-07-29T09:29:14.369Z,101886.28
2022-07-29T09:31:46.739Z,101876.22
2022-07-29T09:34:16.614Z,101920.47
2022-07-29T09:36:45.304Z,101882.81
2022-07-29T09:39:12.738Z,101896.41
2022-07-29T09:41:50.371Z,101880.22
2022-07-29T09:44:17.666Z,101868.72
2022-07-29T09:47:14.065Z,101876.50
2022-07-29T09:49:59.371Z,101862.88
2022-07-29T09:52:30.655Z,101829.84
2022-07-29T09:55:18.463Z,101809.66
2022-07-29T09:57:47.922Z,101795.59
2022-07-29T10:00:20.480Z,101770.03
2022-07-29T10:02:48.591Z,101786.63
2022-07-29T10:05:25.658Z,101764.69
2022-07-29T10:07:57.434Z,101786.53
2022-07-29T10:10:30.549Z,101762.56
2022-07-29T10:13:03.019Z,101754.03
2022-07-29T10:15:44.789Z,101763.94
2022-07-29T10:18:13.421Z,101779.59
2022-07-29T10:20:40.805Z,101785.63
2022-07-29T10:23:07.589Z,101812.38
2022-07-29T10:25:34.418Z,101778.13
2022-07-29T10:28:01.280Z,101829.84
2022-07-29T10:30:28.643Z,101760.34
2022-07-29T10:33:18.205Z,101752.34
2022-07-29T10:36:22.527Z,101784.84
2022-07-29T10:39:06.469Z,101811.50
2022-07-29T10:41:59.100Z,101828.06
2022-07-29T10:44:28.468Z,101816.47
2022-07-29T10:46:55.753Z,101784.03
2022-07-29T10:49:27.104Z,101857.56
2022-07-29T10:52:02.767Z,101852.59
2022-07-29T10:54:48.337Z,101905.50
2022-07-29T10:57:21.391Z,101885.59
2022-07-29T11:00:11.133Z,101921.34
2022-07-29T11:02:41.025Z,101907.59
2022-07-29T11:05:14.911Z,101832.44
2022-07-29T11:08:20.458Z,101790.78
2022-07-29T11:10:54.255Z,101784.38
2022-07-29T11:13:53.307Z,101776.06
2022-07-29T11:16:24.999Z,101811.28
2022-07-29T11:19:14.256Z,101795.03
2022-07-29T11:22:00.349Z,101772.75
2022-07-29T11:24:31.798Z,101796.38
2022-07-29T11:27:13.451Z,101810.94
2022-07-29T11:29:50.787Z,101789.25
2022-07-29T11:35:27.687Z,101802.22
2022-07-29T11:38:23.216Z,101770.56
2022-07-29T11:41:25.459Z,101799.22
2022-07-29T11:44:00.163Z,101766.47
2022-07-29T11:46:48.015Z,101747.78
2022-07-29T11:49:22.038Z,101762.00
2022-07-29T11:52:02.403Z,101736.97
2022-07-29T11:54:58.365Z,101709.88
2022-07-29T11:57:36.643Z,101675.03
2022-07-29T12:00:38.871Z,101707.00
2022-07-29T12:03:08.415Z,101703.59
2022-07-29T12:05:48.386Z,101698.06
2022-07-29T12:07:01.471Z,101819.25
2022-07-29T12:08:23.284Z,101702.94
2022-07-29T12:10:51.883Z,101707.13
2022-07-29T12:13:20.930Z,101733.50
2022-07-29T12:16:00.183Z,101723.16
2022-07-29T12:18:27.859Z,101751.19
2022-07-29T12:21:04.842Z,101807.34
2022-07-29T12:23:34.670Z,101832.19
2022-07-29T12:26:07.721Z,101825.00
2022-07-29T12:28:39.717Z,101837.28
2022-07-29T12:31:08.308Z,101849.56
2022-07-29T12:33:36.180Z,101861.72
2022-07-29T12:36:10.468Z,101847.53
2022-07-29T12:38:42.067Z,101783.34
2022-07-29T12:41:09.045Z,101774.13
2022-07-29T12:43:36.007Z,101790.06
2022-07-29T12:46:23.017Z,101772.06
2022-07-29T12:48:57.707Z,101783.66
2022-07-29T12:51:33.248Z,101830.19
2022-07-29T12:54:04.799Z,101809.53
2022-07-29T12:56:46.853Z,101799.13
2022-07-29T12:59:23.505Z,101773.97
2022-07-29T13:01:52.765Z,101754.03
2022-07-29T13:04:30.597Z,101764.09
2022-07-29T13:07:04.663Z,101782.47
2022-07-29T13:09:49.755Z,101777.72
2022-07-29T13:12:16.991Z,101802.03
2022-07-29T13:14:46.554Z,101765.75
2022-07-29T13:17:16.762Z,101793.22
2022-07-29T13:19:44.610Z,101741.88
2022-07-29T13:22:13.767Z,101748.28
2022-07-29T13:24:50.929Z,101718.66
2022-07-29T13:27:19.099Z,101747.44
2022-07-29T13:29:46.233Z,101735.66
2022-07-29T13:32:14.249Z,101762.69
2022-07-29T13:34:41.799Z,101741.34
2022-07-29T13:37:08.570Z,101690.84
2022-07-29T13:39:35.548Z,101754.03
2022-07-29T13:42:02.425Z,101752.28
2022-07-29T13:44:29.173Z,101730.03
2022-07-29T13:46:56.824Z,101700.13
2022-07-29T13:49:23.872Z,101753.84
2022-07-29T13:51:51.201Z,101780.63
2022-07-29T13:54:18.005Z,101746.56
2022-07-29T13:56:44.761Z,101795.53
2022-07-29T13:59:13.584Z,101766.41
2022-07-29T14:01:42.674Z,101732.78
2022-07-29T14:04:11.287Z,101731.47
2022-07-29T14:06:40.517Z,101771.53
2022-07-29T14:09:07.466Z,101772.84
2022-07-29T14:11:34.379Z,101788.81
2022-07-29T14:14:01.191Z,101763.13
2022-07-29T14:16:28.042Z,101754.63
2022-07-29T14:18:54.877Z,101743.97
2022-07-29T14:21:21.697Z,101750.34
2022-07-29T14:23:48.769Z,101753.84
2022-07-29T14:26:21.702Z,101744.69
2022-07-29T14:28:51.225Z,101728.56
2022-07-29T14:31:18.130Z,101756.66
2022-07-29T14:33:46.217Z,101740.06
2022-07-29T14:36:16.465Z,101724.63
2022-07-29T14:38:43.487Z,101740.06
2022-07-29T14:41:10.306Z,101735.75
2022-07-29T14:43:37.060Z,101718.59
2022-07-29T14:46:08.215Z,101689.28
2022-07-29T14:48:36.019Z,101672.13
2022-07-29T14:51:04.949Z,101680.28
2022-07-29T14:53:32.062Z,101688.06
2022-07-29T14:56:10.312Z,101675.94
2022-07-29T14:58:51.764Z,101655.66
2022-07-29T15:01:19.180Z,101632.44
2022-07-29T15:03:46.769Z,101646.31
2022-07-29T15:06:13.617Z,101663.09
2022-07-29T15:08:40.422Z,101641.47
2022-07-29T15:11:07.244Z,101634.88
2022-07-29T15:13:34.794Z,101640.78
2022-07-29T15:16:01.929Z,101654.28
2022-07-29T15:18:28.829Z,101647.34
2022-07-29T15:20:55.563Z,101674.38
2022-07-29T15:23:22.320Z,101689.88
2022-07-29T15:25:49.362Z,101654.44
2022-07-29T15:28:16.285Z,101666.91
2022-07-29T15:30:43.532Z,101676.06
2022-07-29T15:33:10.561Z,101697.38
2022-07-29T15:35:40.231Z,101715.09
2022-07-29T15:38:08.202Z,101732.72
2022-07-29T15:40:35.137Z,101747.34
2022-07-29T15:43:06.927Z,101779.22
2022-07-29T15:45:40.187Z,101767.97
2022-07-29T15:48:09.140Z,101789.09
2022-07-29T15:50:36.277Z,101802.91
2022-07-29T15:53:03.736Z,101795.63
2022-07-29T15:55:30.544Z,101805.13
2022-07-29T15:58:00.624Z,101783.47
2022-07-29T16:00:27.774Z,101788.16
2022-07-29T16:02:54.519Z,101775.00
2022-07-29T16:05:21.284Z,101787.22
2022-07-29T16:07:48.228Z,101772.31
2022-07-29T16:10:16.009Z,101752.28
2022-07-29T16:12:42.837Z,101748.13
2022-07-29T16:15:10.832Z,101748.81
2022-07-29T16:17:38.981Z,101731.41
2022-07-29T16:20:06.622Z,101731.75
2022-07-29T16:22:33.417Z,101715.81
2022-07-29T16:25:00.123Z,101719.78
2022-07-29T16:27:35.378Z,101734.13
2022-07-29T16:30:05.778Z,101738.63
2022-07-29T16:32:32.720Z,101759.03
2022-07-29T16:35:02.133Z,101785.38
2022-07-29T16:37:33.589Z,101800.41
2022-07-29T16:40:00.430Z,101820.31
2022-07-29T16:42:45.413Z,101820.63
2022-07-29T16:45:13.524Z,101821.78
2022-07-29T16:47:40.727Z,101839.06
2022-07-29T16:50:08.730Z,101834.19
2022-07-29T16:52:36.048Z,101842.03
2022-07-29T16:55:02.742Z,101841.75
2022-07-29T16:57:29.526Z,101849.19
2022-07-29T16:59:56.303Z,101849.44
2022-07-29T17:02:23.123Z,101846.53
2022-07-29T17:04:49.995Z,101837.34
2022-07-29T17:07:17.010Z,101830.72
2022-07-29T17:09:43.638Z,101833.22
2022-07-29T17:12:10.292Z,101838.00
2022-07-29T17:14:37.016Z,101835.34
2022-07-29T17:17:04.513Z,101841.63
2022-07-29T17:19:40.511Z,101839.22
2022-07-29T17:22:12.934Z,101835.88
2022-07-29T17:24:45.458Z,101835.94
2022-07-29T17:27:12.597Z,101832.44
2022-07-29T17:29:39.414Z,101833.72
2022-07-29T17:32:07.661Z,101817.78
2022-07-29T17:34:36.453Z,101833.97
2022-07-29T17:37:04.948Z,101832.91
2022-07-29T17:39:31.695Z,101837.19
2022-07-29T17:41:59.326Z,101833.28
2022-07-29T17:44:25.998Z,101828.63
2022-07-29T17:46:52.763Z,101828.72
2022-07-29T17:49:19.778Z,101828.56
2022-07-29T17:51:46.597Z,101829.44
2022-07-29T17:54:13.388Z,101820.56
2022-07-29T17:56:40.069Z,101825.31
2022-07-29T17:59:09.069Z,101831.69
2022-07-29T18:01:37.220Z,101831.47
2022-07-29T18:04:04.252Z,101830.28
2022-07-29T18:06:30.973Z,101834.72
2022-07-29T18:08:57.697Z,101831.84
2022-07-29T18:11:24.502Z,101835.28
2022-07-29T18:13:51.260Z,101840.69
2022-07-29T18:16:18.394Z,101838.81
2022-07-29T18:18:45.929Z,101836.09
2022-07-29T18:21:12.747Z,101836.97
2022-07-29T18:23:39.452Z,101839.41
2022-07-29T18:26:06.173Z,101840.31
2022-07-29T18:28:33.251Z,101839.47
2022-07-29T18:31:00.893Z,101848.06
2022-07-29T18:33:27.895Z,101844.19
2022-07-29T18:36:10.499Z,101851.31
2022-07-29T18:38:39.926Z,101855.81
2022-07-29T18:41:06.770Z,101851.19
2022-07-29T18:43:36.235Z,101851.47
2022-07-29T18:46:05.319Z,101853.78
2022-07-29T18:48:33.429Z,101851.91
2022-07-29T18:51:00.245Z,101848.00
2022-07-29T18:53:26.974Z,101847.09
2022-07-29T18:55:58.573Z,101837.84
2022-07-29T18:58:26.882Z,101846.00
2022-07-29T19:00:53.788Z,101845.59
2022-07-29T19:03:20.462Z,101840.19
2022-07-29T19:05:47.305Z,101839.91
2022-07-29T19:08:14.453Z,101842.38
2022-07-29T19:10:42.293Z,101847.63
2022-07-29T19:13:09.016Z,101856.50
2022-07-29T19:15:40.213Z,101851.69
2022-07-29T19:18:07.200Z,101859.19
2022-07-29T19:20:33.964Z,101852.34
2022-07-29T19:23:00.690Z,101856.91
2022-07-29T19:25:27.382Z,101857.59
2022-07-29T19:27:54.249Z,101852.06
2022-07-29T19:30:21.103Z,101854.41
2022-07-29T19:32:48.080Z,101853.38
2022-07-29T19:35:25.308Z,101854.53
2022-07-29T19:37:52.610Z,101859.75
2022-07-29T19:40:19.351Z,101859.25
2022-07-29T19:42:48.153Z,101852.06
2022-07-29T19:45:14.874Z,101857.69
2022-07-29T19:47:41.467Z,101852.16
2022-07-29T19:50:09.122Z,101840.41
2022-07-29T19:52:36.518Z,101835.50
2022-07-29T19:55:07.542Z,101845.75
2022-07-29T19:57:40.697Z,101844.72
2022-07-29T20:00:11.123Z,101836.13
2022-07-29T20:02:40.219Z,101824.97
2022-07-29T20:05:08.084Z,101830.63
2022-07-29T20:07:35.281Z,101802.09
2022-07-29T20:10:02.583Z,101809.53
2022-07-29T20:12:29.591Z,101797.72
2022-07-29T20:14:56.324Z,101795.28
2022-07-29T20:17:24.543Z,101789.59
2022-07-29T20:19:52.899Z,101781.34
2022-07-29T20:22:21.036Z,101782.31
2022-07-29T20:24:49.046Z,101774.81
2022-07-29T20:27:15.778Z,101768.47
2022-07-29T20:29:42.687Z,101756.00
2022-07-29T20:32:09.520Z,101751.22
2022-07-29T20:34:36.189Z,101739.44
2022-07-29T20:37:03.086Z,101731.84
2022-07-29T20:39:30.353Z,101714.72
2022-07-29T20:41:57.019Z,101721.06
2022-07-29T20:44:24.394Z,101718.72
2022-07-29T20:46:51.216Z,101708.59
2022-07-29T20:49:18.151Z,101709.34
2022-07-29T20:51:45.049Z,101699.50
2022-07-29T20:54:12.278Z,101705.63
2022-07-29T20:56:39.433Z,101701.59
2022-07-29T20:59:06.128Z,101691.31
2022-07-29T21:01:32.922Z,101676.94
2022-07-29T21:04:01.622Z,101657.06
2022-07-29T21:06:28.643Z,101659.66
2022-07-29T21:08:59.703Z,101662.97
2022-07-29T21:11:44.747Z,101658.84
2022-07-29T21:14:29.928Z,101654.63
2022-07-29T21:16:57.054Z,101657.69
2022-07-29T21:19:24.202Z,101658.66
2022-07-29T21:21:51.274Z,101651.00
2022-07-29T21:24:19.020Z,101649.84
2022-07-29T21:26:50.726Z,101640.97
2022-07-29T21:29:26.802Z,101639.25
2022-07-29T21:31:53.478Z,101636.38
2022-07-29T21:34:20.202Z,101637.25
2022-07-29T21:36:48.801Z,101637.06
2022-07-29T21:39:15.738Z,101630.53
2022-07-29T21:41:42.389Z,101631.66
2022-07-29T21:44:09.080Z,101623.72
2022-07-29T21:46:36.642Z,101615.50
2022-07-29T21:49:03.678Z,101619.53
2022-07-29T21:51:30.416Z,101614.84
2022-07-29T21:53:57.092Z,101612.09
2022-07-29T21:56:24.565Z,101598.84
2022-07-29T21:58:55.025Z,101601.72
2022-07-29T22:01:21.775Z,101593.47
2022-07-29T22:03:48.690Z,101598.41
2022-07-29T22:06:18.407Z,101590.75
2022-07-29T22:08:45.872Z,101596.50
2022-07-29T22:11:13.064Z,101573.50
2022-07-29T22:13:39.838Z,101544.34
2022-07-29T22:16:06.838Z,101545.34
2022-07-29T22:18:33.662Z,101541.91
2022-07-29T22:21:00.348Z,101540.44
2022-07-29T22:23:27.078Z,101535.25
2022-07-29T22:25:53.852Z,101534.97
2022-07-29T22:28:20.519Z,101527.72
2022-07-29T22:30:47.483Z,101529.16
2022-07-29T22:33:17.550Z,101529.63
2022-07-29T22:35:45.558Z,101526.84
2022-07-29T22:38:17.240Z,101530.75
2022-07-29T22:40:48.712Z,101530.91
2022-07-29T22:43:17.890Z,101522.22
2022-07-29T22:45:44.755Z,101518.59
2022-07-29T22:48:11.625Z,101518.00
2022-07-29T22:50:38.973Z,101511.94
2022-07-29T22:53:05.996Z,101510.50
2022-07-29T22:55:32.709Z,101501.50
2022-07-29T22:57:59.520Z,101499.75
2022-07-29T23:00:26.195Z,101496.72
2022-07-29T23:02:52.954Z,101496.00
2022-07-29T23:05:19.752Z,101498.31
2022-07-29T23:07:46.457Z,101488.75
2022-07-29T23:10:13.349Z,101485.13
2022-07-29T23:12:40.041Z,101475.56
2022-07-29T23:15:07.138Z,101470.50
2022-07-29T23:17:36.528Z,101457.66
2022-07-29T23:20:06.636Z,101463.13
2022-07-29T23:22:33.819Z,101447.06
2022-07-29T23:25:00.599Z,101447.22
2022-07-29T23:27:27.298Z,101448.38
2022-07-29T23:29:54.003Z,101440.13
2022-07-29T23:32:20.962Z,101430.25
2022-07-29T23:34:47.776Z,101433.16
2022-07-29T23:37:14.558Z,101438.97
2022-07-29T23:39:41.277Z,101439.97
2022-07-29T23:42:08.414Z,101433.69
2022-07-29T23:44:35.111Z,101428.34
2022-07-29T23:47:02.181Z,101421.84
2022-07-29T23:49:29.124Z,101411.44
2022-07-29T23:51:55.942Z,101408.09
2022-07-29T23:54:22.808Z,101390.28
2022-07-29T23:56:49.533Z,101377.56
2022-07-29T23:59:16.324Z,101372.06
